Terminal Aerodrome Forecast
Issued by NWS

Current Version | Previous Version | Text Only | Print | Product List | Glossary On
Versions: 1 2 3 4 5 6 7 8 9 10 11 12 13 14 15 16
541
FTUS44 KTSA 241724
TAFBVO
TAF
KBVO 241724Z 2418/2518 36005KT P6SM BKN200
     FM250900 36010KT 6SM SHRA OVC040
     FM251100 34004KT 3SM -RA BR OVC007=

USA.gov is the U.S. government's official web portal to all federal, state and local government web resources and services.